createdAt,value
2023-01-30T00:01:32.664Z,-3.20
2023-01-30T00:03:59.827Z,-3.16
2023-01-30T00:06:28.752Z,-3.12
2023-01-30T00:08:58.084Z,-3.13
2023-01-30T00:11:24.736Z,-3.06
2023-01-30T00:13:54.258Z,-3.00
2023-01-30T00:16:20.889Z,-2.98
2023-01-30T00:18:47.528Z,-2.94
2023-01-30T00:21:17.359Z,-2.97
2023-01-30T00:23:44.413Z,-2.95
2023-01-30T00:26:14.247Z,-2.93
2023-01-30T00:28:42.911Z,-3.03
2023-01-30T00:31:09.494Z,-2.97
2023-01-30T00:33:38.107Z,-3.09
2023-01-30T00:36:07.660Z,-3.08
2023-01-30T00:38:36.485Z,-3.04
2023-01-30T00:41:03.404Z,-3.16
2023-01-30T00:43:48.457Z,-3.22
2023-01-30T00:46:39.588Z,-3.29
2023-01-30T00:49:08.719Z,-3.33
2023-01-30T00:51:35.292Z,-3.35
2023-01-30T00:54:06.897Z,-3.43
2023-01-30T00:56:33.656Z,-3.54
2023-01-30T00:59:00.378Z,-3.78
2023-01-30T01:01:31.740Z,-3.65
2023-01-30T01:04:00.579Z,-3.64
2023-01-30T01:06:31.874Z,-3.70
2023-01-30T01:08:58.478Z,-3.68
2023-01-30T01:11:27.431Z,-3.57
2023-01-30T01:13:58.929Z,-3.59
2023-01-30T01:16:29.312Z,-3.63
2023-01-30T01:18:58.129Z,-3.69
2023-01-30T01:21:27.467Z,-3.66
2023-01-30T01:23:59.349Z,-3.72
2023-01-30T01:26:27.101Z,-3.78
2023-01-30T01:28:58.144Z,-3.90
2023-01-30T01:31:27.213Z,-3.87
2023-01-30T01:33:53.886Z,-4.00
2023-01-30T01:36:49.663Z,-3.91
2023-01-30T01:39:07.514Z,-3.85
2023-01-30T01:41:34.152Z,-3.87
2023-01-30T01:44:12.141Z,-3.91
2023-01-30T01:46:42.969Z,-3.80
2023-01-30T01:49:20.354Z,-3.70
2023-01-30T01:51:55.809Z,-3.67
2023-01-30T01:54:59.724Z,-3.74
2023-01-30T01:57:52.784Z,-3.67
2023-01-30T02:00:21.313Z,-3.75
2023-01-30T02:03:12.548Z,-3.77
2023-01-30T02:05:46.733Z,-3.68
2023-01-30T02:08:38.123Z,-3.62
2023-01-30T02:11:17.300Z,-3.55
2023-01-30T02:13:46.394Z,-3.52
2023-01-30T02:16:13.990Z,-3.46
2023-01-30T02:18:44.065Z,-3.41
2023-01-30T02:21:41.680Z,-3.35
2023-01-30T02:24:27.000Z,-3.27
2023-01-30T02:26:57.867Z,-3.25
2023-01-30T02:29:33.440Z,-3.27
2023-01-30T02:32:29.520Z,-3.20
2023-01-30T02:35:31.970Z,-3.12
2023-01-30T02:38:10.245Z,-3.07
2023-01-30T02:40:41.048Z,-3.12
2023-01-30T02:43:25.115Z,-3.46
2023-01-30T02:46:09.817Z,-3.50
2023-01-30T02:48:44.368Z,-3.30
2023-01-30T02:51:42.700Z,-3.41
2023-01-30T02:54:14.537Z,-3.54
2023-01-30T02:56:57.240Z,-3.48
2023-01-30T02:59:45.691Z,-3.44
2023-01-30T03:02:27.366Z,-3.44
2023-01-30T03:05:31.593Z,-3.42
2023-01-30T03:08:26.033Z,-3.46
2023-01-30T03:10:56.855Z,-3.39
2023-01-30T03:14:00.714Z,-3.39
2023-01-30T03:16:36.720Z,-3.37
2023-01-30T03:19:10.171Z,-3.36
2023-01-30T03:21:44.773Z,-3.29
2023-01-30T03:24:12.444Z,-3.30
2023-01-30T03:26:54.464Z,-3.26
2023-01-30T03:29:23.961Z,-3.37
2023-01-30T03:31:52.761Z,-3.54
2023-01-30T03:34:21.433Z,-3.68
2023-01-30T03:36:51.730Z,-3.54
2023-01-30T03:39:18.551Z,-3.42
2023-01-30T03:41:45.988Z,-3.36
2023-01-30T03:44:12.552Z,-3.34
2023-01-30T03:46:39.083Z,-3.39
2023-01-30T03:49:05.624Z,-3.25
2023-01-30T03:51:32.198Z,-3.22
2023-01-30T03:53:58.809Z,-3.18
2023-01-30T03:56:28.396Z,-3.21
2023-01-30T03:58:54.903Z,-3.41
2023-01-30T04:01:21.531Z,-3.38
2023-01-30T04:03:48.248Z,-3.38
2023-01-30T04:06:17.080Z,-3.44
2023-01-30T04:08:46.115Z,-3.76
2023-01-30T04:11:12.659Z,-3.61
2023-01-30T04:13:41.653Z,-3.59
2023-01-30T04:16:19.238Z,-3.67
2023-01-30T04:18:45.879Z,-3.70
2023-01-30T04:21:13.284Z,-3.74
2023-01-30T04:23:42.231Z,-3.71
2023-01-30T04:26:09.827Z,-3.77
2023-01-30T04:28:38.737Z,-3.75
2023-01-30T04:31:08.059Z,-3.72
2023-01-30T04:33:35.496Z,-3.66
2023-01-30T04:36:03.989Z,-3.77
2023-01-30T04:38:35.049Z,-3.74
2023-01-30T04:41:04.331Z,-3.77
2023-01-30T04:43:31.673Z,-3.93
2023-01-30T04:46:00.603Z,-3.93
2023-01-30T04:48:28.107Z,-3.81
2023-01-30T04:50:56.130Z,-3.72
2023-01-30T04:53:23.579Z,-3.68
2023-01-30T04:55:52.627Z,-3.85
2023-01-30T04:58:21.913Z,-3.84
2023-01-30T05:00:53.441Z,-3.83
2023-01-30T05:03:22.093Z,-3.71
2023-01-30T05:05:49.172Z,-3.64
2023-01-30T05:08:17.913Z,-3.55
2023-01-30T05:10:46.701Z,-3.47
2023-01-30T05:13:18.045Z,-3.44
2023-01-30T05:15:45.230Z,-3.40
2023-01-30T05:18:11.776Z,-3.31
2023-01-30T05:20:38.336Z,-3.27
2023-01-30T05:23:04.873Z,-3.19
2023-01-30T05:25:31.447Z,-3.11
2023-01-30T05:28:00.331Z,-3.06
2023-01-30T05:30:26.885Z,-3.07
2023-01-30T05:32:57.483Z,-3.01
2023-01-30T05:35:24.067Z,-2.99
2023-01-30T05:37:51.896Z,-3.00
2023-01-30T05:40:21.167Z,-3.03
2023-01-30T05:42:47.772Z,-3.09
2023-01-30T05:45:19.597Z,-3.07
2023-01-30T05:47:51.348Z,-3.05
2023-01-30T05:50:18.214Z,-3.05
2023-01-30T05:52:44.956Z,-3.12
2023-01-30T05:55:11.491Z,-3.14
2023-01-30T05:57:38.051Z,-3.14
2023-01-30T06:00:05.887Z,-3.16
2023-01-30T06:02:32.517Z,-3.15
2023-01-30T06:04:59.095Z,-3.19
2023-01-30T06:07:30.179Z,-3.19
2023-01-30T06:09:56.810Z,-3.27
2023-01-30T06:12:27.868Z,-3.33
2023-01-30T06:14:54.408Z,-3.37
2023-01-30T06:17:20.984Z,-3.48
2023-01-30T06:19:50.265Z,-3.49
2023-01-30T06:22:16.797Z,-3.43
2023-01-30T06:24:43.385Z,-3.53
2023-01-30T06:27:09.953Z,-3.49
2023-01-30T06:29:38.840Z,-3.50
2023-01-30T06:32:05.609Z,-3.49
2023-01-30T06:34:34.249Z,-3.50
2023-01-30T06:37:03.800Z,-3.47
2023-01-30T06:39:32.680Z,-3.50
2023-01-30T06:42:01.595Z,-3.54
2023-01-30T06:44:28.141Z,-3.58
2023-01-30T06:46:54.699Z,-3.64
2023-01-30T06:49:23.431Z,-3.63
2023-01-30T06:51:50.024Z,-3.64
2023-01-30T06:54:18.791Z,-3.64
2023-01-30T06:56:50.203Z,-3.64
2023-01-30T06:59:16.784Z,-3.68
2023-01-30T07:01:45.589Z,-3.70
2023-01-30T07:04:14.210Z,-3.88
2023-01-30T07:06:40.828Z,-3.90
2023-01-30T07:09:07.411Z,-3.92
2023-01-30T07:11:36.275Z,-3.82
2023-01-30T07:14:06.340Z,-3.86
2023-01-30T07:16:33.603Z,-3.88
2023-01-30T07:19:00.123Z,-3.88
2023-01-30T07:21:27.352Z,-3.81
2023-01-30T07:23:59.504Z,-3.85
2023-01-30T07:26:26.141Z,-3.79
2023-01-30T07:28:52.689Z,-3.78
2023-01-30T07:31:19.335Z,-3.71
2023-01-30T07:33:45.852Z,-3.57
2023-01-30T07:36:12.403Z,-3.44
2023-01-30T07:38:41.209Z,-3.39
2023-01-30T07:41:07.750Z,-3.41
2023-01-30T07:43:36.341Z,-3.39
2023-01-30T07:46:05.324Z,-3.51
2023-01-30T07:48:34.096Z,-3.56
2023-01-30T07:51:00.682Z,-3.54
2023-01-30T07:53:27.317Z,-3.38
2023-01-30T07:55:53.878Z,-3.12
2023-01-30T07:58:20.473Z,-2.92
2023-01-30T08:00:47.155Z,-2.84
2023-01-30T08:03:15.317Z,-2.72
2023-01-30T08:05:41.929Z,-2.73
2023-01-30T08:08:08.562Z,-2.69
2023-01-30T08:10:35.101Z,-2.54
2023-01-30T08:13:01.653Z,-2.69
2023-01-30T08:15:28.332Z,-2.75
2023-01-30T08:17:58.931Z,-2.66
2023-01-30T08:20:28.414Z,-2.38
2023-01-30T08:22:58.352Z,-2.19
2023-01-30T08:25:27.417Z,-2.23
2023-01-30T08:27:54.191Z,-2.04
2023-01-30T08:30:21.792Z,-1.98
2023-01-30T08:32:48.964Z,-1.87
2023-01-30T08:35:15.615Z,-1.77
2023-01-30T08:37:45.312Z,-1.74
2023-01-30T08:40:12.672Z,-1.65
2023-01-30T08:42:39.282Z,-1.52
2023-01-30T08:45:06.624Z,-1.51
2023-01-30T08:47:35.607Z,-1.35
2023-01-30T08:50:03.131Z,-1.33
2023-01-30T08:52:29.698Z,-1.34
2023-01-30T08:54:56.239Z,-1.36
2023-01-30T08:57:25.148Z,-1.38
2023-01-30T08:59:52.219Z,-1.26
2023-01-30T09:02:18.982Z,-1.16
2023-01-30T09:04:45.557Z,-0.98
2023-01-30T09:07:12.149Z,-0.87
2023-01-30T09:09:40.819Z,-0.73
2023-01-30T09:12:07.428Z,-0.33
2023-01-30T09:14:34.087Z,-0.18
2023-01-30T09:17:00.769Z,-0.16
2023-01-30T09:19:28.727Z,0.04
2023-01-30T09:21:56.024Z,0.11
2023-01-30T09:24:26.520Z,0.39
2023-01-30T09:26:57.619Z,0.40
2023-01-30T09:29:27.289Z,0.14
2023-01-30T09:31:54.356Z,0.07
2023-01-30T09:34:21.049Z,0.29
2023-01-30T09:36:52.300Z,0.49
2023-01-30T09:39:18.904Z,0.49
2023-01-30T09:42:04.415Z,0.51
2023-01-30T09:44:52.698Z,0.53
2023-01-30T09:48:01.734Z,0.64
2023-01-30T09:51:02.890Z,0.61
2023-01-30T09:53:46.605Z,0.70
2023-01-30T09:56:13.253Z,0.87
2023-01-30T09:58:49.116Z,0.92
2023-01-30T10:01:41.005Z,1.00
2023-01-30T10:04:16.490Z,1.14
2023-01-30T10:07:17.315Z,1.29
2023-01-30T10:09:49.935Z,1.31
2023-01-30T10:12:22.611Z,1.37
2023-01-30T10:15:07.722Z,1.42
2023-01-30T10:17:55.522Z,1.13
2023-01-30T10:20:22.327Z,1.31
2023-01-30T10:22:57.782Z,1.25
2023-01-30T10:25:40.309Z,1.14
2023-01-30T10:28:18.366Z,0.98
2023-01-30T10:30:51.205Z,1.10
2023-01-30T10:33:20.840Z,1.19
2023-01-30T10:35:58.190Z,1.29
2023-01-30T10:38:40.795Z,1.35
2023-01-30T10:41:32.779Z,1.44
2023-01-30T10:44:13.955Z,1.38
2023-01-30T10:47:11.133Z,1.62
2023-01-30T10:49:46.498Z,1.71
2023-01-30T10:52:39.361Z,1.62
2023-01-30T10:55:37.215Z,1.67
2023-01-30T10:58:24.073Z,1.75
2023-01-30T11:01:00.110Z,2.00
2023-01-30T11:03:27.528Z,1.91
2023-01-30T11:06:06.061Z,1.85
2023-01-30T11:08:34.363Z,1.79
2023-01-30T11:11:01.959Z,1.84
2023-01-30T11:13:33.950Z,1.83
2023-01-30T11:16:11.787Z,1.72
2023-01-30T11:21:43.963Z,1.89
2023-01-30T11:24:17.355Z,2.00
2023-01-30T11:26:47.898Z,2.06
2023-01-30T11:29:35.462Z,1.92
2023-01-30T11:32:06.707Z,2.02
2023-01-30T11:34:33.362Z,2.13
2023-01-30T11:37:26.984Z,1.93
2023-01-30T11:39:54.049Z,1.80
2023-01-30T11:42:25.843Z,1.88
2023-01-30T11:45:16.539Z,1.97
2023-01-30T11:47:57.777Z,1.85
2023-01-30T11:50:35.452Z,1.71
2023-01-30T11:53:17.181Z,1.74
2023-01-30T11:55:56.642Z,1.73
2023-01-30T11:58:33.862Z,1.73
2023-01-30T12:01:01.956Z,1.72
2023-01-30T12:03:30.133Z,1.71
2023-01-30T12:05:59.060Z,1.73
2023-01-30T12:08:43.624Z,1.72
2023-01-30T12:11:44.968Z,1.75
2023-01-30T12:14:45.750Z,1.78
2023-01-30T12:17:27.004Z,1.75
2023-01-30T12:20:02.461Z,2.20
2023-01-30T12:23:17.550Z,2.22
2023-01-30T12:26:07.390Z,2.27
2023-01-30T12:28:57.650Z,2.44
2023-01-30T12:31:35.909Z,2.53
2023-01-30T12:34:04.095Z,2.53
2023-01-30T12:36:35.931Z,2.49
2023-01-30T12:39:02.458Z,2.46
2023-01-30T12:41:37.548Z,2.53
2023-01-30T12:44:35.394Z,2.67
2023-01-30T12:47:01.907Z,2.83
2023-01-30T12:49:40.372Z,2.88
2023-01-30T12:52:44.581Z,3.18
2023-01-30T12:56:01.848Z,3.60
2023-01-30T12:58:36.940Z,3.78
2023-01-30T13:01:06.332Z,3.74
2023-01-30T13:03:41.605Z,3.59
2023-01-30T13:06:19.573Z,3.44
2023-01-30T13:08:54.066Z,3.06
2023-01-30T13:11:51.370Z,3.10
2023-01-30T13:14:37.386Z,3.04
2023-01-30T13:17:42.111Z,3.02
2023-01-30T13:20:46.452Z,3.01
2023-01-30T13:23:21.433Z,2.92
2023-01-30T13:25:54.479Z,2.93
2023-01-30T13:28:26.126Z,2.87
2023-01-30T13:30:55.238Z,2.93
2023-01-30T13:33:31.923Z,2.91
2023-01-30T13:36:17.565Z,2.90
2023-01-30T13:38:51.351Z,2.89
2023-01-30T13:41:25.545Z,2.84
2023-01-30T13:43:54.039Z,2.85
2023-01-30T13:46:31.484Z,2.75
2023-01-30T13:49:03.922Z,2.74
2023-01-30T13:51:53.731Z,2.60
2023-01-30T13:54:27.259Z,2.57
2023-01-30T13:57:01.621Z,2.59
2023-01-30T13:59:40.290Z,2.62
2023-01-30T14:02:10.347Z,2.61
2023-01-30T14:04:44.752Z,2.57
2023-01-30T14:07:25.128Z,2.49
2023-01-30T14:10:03.434Z,2.38
2023-01-30T14:12:44.759Z,2.27
2023-01-30T14:15:17.056Z,2.20
2023-01-30T14:18:07.280Z,2.20
2023-01-30T14:20:52.977Z,2.20
2023-01-30T14:23:28.821Z,2.17
2023-01-30T14:26:01.573Z,2.09
2023-01-30T14:28:31.114Z,2.09
2023-01-30T14:31:01.712Z,2.09
2023-01-30T14:33:32.933Z,2.10
2023-01-30T14:36:04.437Z,2.14
2023-01-30T14:38:34.320Z,2.10
2023-01-30T14:41:00.831Z,2.09
2023-01-30T14:43:42.744Z,2.08
2023-01-30T14:46:20.717Z,2.05
2023-01-30T14:49:13.550Z,2.05
2023-01-30T14:51:40.021Z,2.03
2023-01-30T14:54:13.329Z,2.05
2023-01-30T14:56:48.908Z,2.09
2023-01-30T14:59:24.754Z,2.02
2023-01-30T15:02:12.893Z,2.09
2023-01-30T15:04:46.879Z,2.00
2023-01-30T15:07:16.738Z,1.95
2023-01-30T15:09:51.256Z,1.94
2023-01-30T15:12:23.153Z,1.85
2023-01-30T15:14:58.103Z,1.89
2023-01-30T15:17:45.665Z,1.79
2023-01-30T15:20:28.098Z,1.77
2023-01-30T15:23:32.635Z,1.75
2023-01-30T15:26:25.034Z,1.81
2023-01-30T15:29:27.003Z,1.80
2023-01-30T15:31:58.528Z,1.76
2023-01-30T15:34:31.139Z,1.71
2023-01-30T15:36:58.461Z,1.63
2023-01-30T15:39:27.471Z,1.61
2023-01-30T15:42:07.460Z,1.57
2023-01-30T15:44:42.609Z,1.47
2023-01-30T15:47:29.899Z,1.39
2023-01-30T15:50:11.695Z,1.32
2023-01-30T15:52:46.427Z,1.25
2023-01-30T15:55:17.774Z,1.19
2023-01-30T15:57:50.276Z,1.19
2023-01-30T16:00:34.860Z,1.15
2023-01-30T16:03:06.021Z,1.14
2023-01-30T16:05:34.873Z,1.07
2023-01-30T16:08:18.040Z,1.07
2023-01-30T16:10:51.982Z,1.01
2023-01-30T16:13:21.071Z,0.97
2023-01-30T16:16:03.685Z,0.97
2023-01-30T16:18:38.568Z,0.96
2023-01-30T16:21:15.665Z,0.94
2023-01-30T16:23:52.895Z,0.98
2023-01-30T16:26:21.971Z,0.93
2023-01-30T16:29:03.065Z,0.92
2023-01-30T16:31:41.716Z,0.92
2023-01-30T16:34:25.179Z,0.91
2023-01-30T16:36:55.268Z,0.91
2023-01-30T16:39:39.717Z,0.87
2023-01-30T16:42:28.077Z,0.81
2023-01-30T16:45:35.985Z,0.81
2023-01-30T16:48:18.494Z,0.82
2023-01-30T16:50:47.581Z,0.80
2023-01-30T16:53:18.451Z,0.79
2023-01-30T16:56:09.906Z,0.77
2023-01-30T16:58:42.453Z,0.79
2023-01-30T17:01:09.163Z,0.73
2023-01-30T17:03:43.588Z,0.74
2023-01-30T17:06:24.765Z,0.76
2023-01-30T17:08:56.037Z,0.77
2023-01-30T17:11:34.702Z,0.78
2023-01-30T17:14:27.169Z,0.77
2023-01-30T17:17:03.897Z,0.79
2023-01-30T17:19:32.597Z,0.73
2023-01-30T17:22:05.897Z,0.74
2023-01-30T17:24:38.720Z,0.75
2023-01-30T17:27:05.314Z,0.74
2023-01-30T17:29:48.946Z,0.76
2023-01-30T17:32:16.339Z,0.74
2023-01-30T17:34:43.062Z,0.74
2023-01-30T17:37:15.148Z,0.82
2023-01-30T17:39:44.436Z,0.92
2023-01-30T17:42:12.558Z,0.95
2023-01-30T17:44:41.720Z,1.00
2023-01-30T17:47:12.185Z,1.02
2023-01-30T17:49:41.918Z,0.99
2023-01-30T17:52:11.788Z,1.04
2023-01-30T17:54:40.403Z,1.06
2023-01-30T17:57:09.829Z,1.08
2023-01-30T17:59:36.458Z,1.12
2023-01-30T18:02:03.541Z,1.03
2023-01-30T18:04:30.106Z,1.02
2023-01-30T18:07:04.734Z,1.04
2023-01-30T18:09:33.526Z,1.06
2023-01-30T18:12:08.525Z,1.03
2023-01-30T18:14:39.865Z,0.95
2023-01-30T18:17:09.192Z,0.93
2023-01-30T18:19:35.900Z,0.89
2023-01-30T18:22:02.496Z,0.87
2023-01-30T18:24:31.565Z,0.87
2023-01-30T18:27:01.818Z,0.84
2023-01-30T18:29:28.683Z,0.86
2023-01-30T18:32:03.547Z,0.84
2023-01-30T18:34:30.234Z,0.85
2023-01-30T18:36:56.782Z,0.85
2023-01-30T18:39:25.691Z,0.82
2023-01-30T18:41:54.410Z,0.79
2023-01-30T18:44:23.217Z,0.80
2023-01-30T18:46:53.033Z,0.83
2023-01-30T18:49:21.791Z,0.83
2023-01-30T18:51:48.404Z,0.86
2023-01-30T18:54:15.066Z,0.88
2023-01-30T18:56:41.800Z,0.88
2023-01-30T18:59:10.083Z,0.91
2023-01-30T19:01:38.900Z,0.90
2023-01-30T19:04:10.849Z,0.89
2023-01-30T19:06:42.249Z,0.91
2023-01-30T19:09:13.073Z,0.92
2023-01-30T19:11:57.922Z,0.91
2023-01-30T19:14:24.466Z,0.93
2023-01-30T19:16:53.492Z,0.94
2023-01-30T19:19:20.153Z,0.94
2023-01-30T19:21:50.604Z,0.93
2023-01-30T19:24:23.664Z,0.93
2023-01-30T19:26:50.520Z,0.96
2023-01-30T19:29:21.932Z,0.94
2023-01-30T19:31:48.698Z,0.95
2023-01-30T19:34:18.359Z,0.96
2023-01-30T19:36:44.964Z,0.97
2023-01-30T19:39:11.634Z,1.00
2023-01-30T19:41:38.509Z,1.01
2023-01-30T19:44:09.431Z,1.01
2023-01-30T19:46:40.836Z,1.00
2023-01-30T19:49:07.397Z,1.02
2023-01-30T19:51:37.276Z,1.01
2023-01-30T19:54:09.549Z,1.01
2023-01-30T19:56:37.426Z,1.03
2023-01-30T19:59:07.835Z,1.05
2023-01-30T20:01:37.673Z,1.03
2023-01-30T20:04:05.270Z,1.01
2023-01-30T20:06:33.673Z,1.04
2023-01-30T20:09:06.964Z,1.04
2023-01-30T20:11:35.530Z,1.03
2023-01-30T20:14:04.767Z,1.02
2023-01-30T20:16:34.713Z,1.07
2023-01-30T20:19:08.060Z,1.06
2023-01-30T20:21:37.282Z,1.06
2023-01-30T20:24:04.931Z,1.06
2023-01-30T20:26:39.732Z,1.03
2023-01-30T20:29:10.029Z,0.98
2023-01-30T20:31:39.527Z,0.97
2023-01-30T20:34:15.405Z,0.94
2023-01-30T20:36:44.222Z,0.93
2023-01-30T20:39:11.501Z,0.89
2023-01-30T20:41:40.744Z,0.89
2023-01-30T20:44:11.840Z,0.83
2023-01-30T20:46:41.645Z,0.65
2023-01-30T20:49:13.407Z,0.42
2023-01-30T20:51:40.391Z,0.38
2023-01-30T20:54:10.978Z,0.51
2023-01-30T20:56:56.959Z,0.55
2023-01-30T20:59:27.329Z,0.61
2023-01-30T21:01:54.521Z,0.65
2023-01-30T21:04:25.448Z,0.68
2023-01-30T21:06:54.615Z,0.71
2023-01-30T21:09:23.306Z,0.74
2023-01-30T21:11:54.881Z,0.80
2023-01-30T21:14:21.541Z,0.80
2023-01-30T21:16:48.834Z,0.80
2023-01-30T21:19:19.333Z,0.63
2023-01-30T21:21:50.949Z,0.65
2023-01-30T21:24:25.115Z,0.74
2023-01-30T21:26:54.934Z,0.81
2023-01-30T21:29:24.198Z,0.85
2023-01-30T21:31:53.436Z,0.84
2023-01-30T21:34:20.141Z,0.79
2023-01-30T21:37:09.444Z,0.75
2023-01-30T21:39:57.700Z,0.72
2023-01-30T21:42:47.552Z,0.76
2023-01-30T21:45:15.341Z,0.84
2023-01-30T21:47:41.949Z,0.83
2023-01-30T21:50:09.171Z,0.89
2023-01-30T21:52:39.047Z,0.92
2023-01-30T21:55:05.907Z,0.91
2023-01-30T21:57:32.511Z,0.91
2023-01-30T22:00:01.434Z,0.91
2023-01-30T22:02:30.431Z,0.91
2023-01-30T22:04:56.994Z,0.91
2023-01-30T22:07:23.599Z,0.93
2023-01-30T22:09:50.321Z,0.78
2023-01-30T22:12:21.526Z,0.84
2023-01-30T22:14:52.804Z,0.88
2023-01-30T22:17:19.354Z,0.65
2023-01-30T22:19:46.386Z,0.71
2023-01-30T22:22:15.183Z,0.76
2023-01-30T22:24:41.773Z,0.81
2023-01-30T22:27:08.311Z,0.83
2023-01-30T22:29:37.545Z,0.88
2023-01-30T22:32:07.314Z,0.89
2023-01-30T22:34:35.952Z,0.94
2023-01-30T22:37:05.726Z,0.96
2023-01-30T22:39:32.315Z,0.90
2023-01-30T22:41:58.904Z,0.71
2023-01-30T22:44:25.515Z,0.59
2023-01-30T22:46:54.441Z,0.58
2023-01-30T22:49:23.090Z,0.53
2023-01-30T22:51:49.693Z,0.64
2023-01-30T22:54:16.586Z,0.41
2023-01-30T22:56:45.692Z,0.61
2023-01-30T22:59:12.813Z,0.61
2023-01-30T23:01:47.664Z,0.61
2023-01-30T23:04:21.664Z,0.67
2023-01-30T23:06:54.056Z,0.70
2023-01-30T23:09:25.365Z,0.52
2023-01-30T23:12:13.043Z,0.63
2023-01-30T23:14:40.413Z,0.62
2023-01-30T23:17:28.570Z,0.51
2023-01-30T23:19:55.726Z,0.39
2023-01-30T23:22:27.084Z,0.52
2023-01-30T23:24:55.874Z,0.59
2023-01-30T23:27:25.486Z,0.54
2023-01-30T23:29:52.029Z,0.57
2023-01-30T23:32:20.073Z,0.56
2023-01-30T23:34:47.647Z,0.65
2023-01-30T23:37:16.465Z,0.69
2023-01-30T23:39:46.253Z,0.77
2023-01-30T23:42:15.788Z,0.79
2023-01-30T23:44:44.892Z,0.80
2023-01-30T23:47:11.462Z,0.83
2023-01-30T23:49:45.345Z,0.78
2023-01-30T23:52:14.171Z,0.86
2023-01-30T23:54:40.732Z,0.79
2023-01-30T23:57:10.267Z,0.86
2023-01-30T23:59:39.060Z,0.91
